Time;durP1;ratioP1;P1;durP2;ratioP2;P2;SDS_P1;SDS_P2;PMS_P1;PMS_P2;Temp;Humidity;BMP_temperature;BMP_pressure;BME280_temperature;BME280_humidity;BME280_pressure;Samples;Min_cycle;Max_cycle;Signal;HPM_P1;HPM_P2
2022/01/17 00:00:20;;;;;;;;;;;;;;;9.14;71.72;102674.34;5141087;27;57442;-80
2022/01/17 00:02:47;;;;;;;;;;;;;;;9.13;72.10;102670.00;5140096;27;26695;-80
2022/01/17 00:05:12;;;;;;;;;;;;;;;9.13;71.41;102667.44;5141163;27;26936;-81
2022/01/17 00:07:37;;;;;;;;;;;;;;;9.12;71.81;102665.69;5139815;27;27042;-81
2022/01/17 00:10:04;;;;;;;;;;;;;;;9.12;72.52;102678.59;5143445;27;53107;-82
2022/01/17 00:12:32;;;;;;;;;;;;;;;9.12;72.40;102669.16;5143288;27;26838;-84
2022/01/17 00:14:57;;;;;;;;;;;;;;;9.12;72.54;102665.69;5142563;27;27682;-82
2022/01/17 00:17:30;;;;;;;;;;;;;;;;;;;;;
2022/01/17 00:19:52;;;;;;;;;;;;;;;9.08;71.25;102676.81;5141241;27;26775;-80
2022/01/17 00:22:20;;;;;;;;;;;;;;;9.07;71.58;102682.84;5140232;27;26866;-80
2022/01/17 00:24:45;;;;;;;;;;;;;;;9.08;71.50;102687.13;5142080;27;26978;-80
2022/01/17 00:27:10;;;;;;;;;;;;;;;9.08;71.17;102692.28;5141822;27;26915;-80
2022/01/17 00:29:35;;;;;;;;;;;;;;;9.09;71.07;102701.75;5140059;27;57124;-80
2022/01/17 00:32:01;;;;;;;;;;;;;;;9.09;69.98;102704.34;5140075;27;55277;-80
2022/01/17 00:34:27;;;;;;;;;;;;;;;9.07;70.78;102706.03;5140401;27;27012;-82
2022/01/17 00:36:52;;;;;;;;;;;;;;;9.04;70.09;102713.72;5141059;27;26856;-80
2022/01/17 00:39:17;;;;;;;;;;;;;;;8.99;68.94;102698.22;5141520;27;27865;-82
2022/01/17 00:41:43;;;;;;;;;;;;;;;8.99;70.27;102697.34;5143451;27;27061;-83
2022/01/17 00:44:09;;;;;;;;;;;;;;;8.97;70.75;102693.88;5142446;27;27879;-81
2022/01/17 00:46:35;;;;;;;;;;;;;;;8.97;69.64;102673.25;5141185;27;26832;-81
2022/01/17 00:49:00;;;;;;;;;;;;;;;8.96;70.03;102692.16;5141737;27;27682;-80
2022/01/17 00:51:25;;;;;;;;;;;;;;;8.95;69.78;102686.16;5140641;27;26582;-81
2022/01/17 00:53:51;;;;;;;;;;;;;;;8.93;69.92;102684.38;5144464;27;26885;-82
2022/01/17 00:56:18;;;;;;;;;;;;;;;8.93;68.40;102686.94;5143564;27;26935;-82
2022/01/17 00:58:43;;;;;;;;;;;;;;;8.94;70.03;102688.69;5141894;27;26786;-82
2022/01/17 01:01:08;;;;;;;;;;;;;;;8.92;69.77;102685.25;5140596;27;53951;-80
2022/01/17 01:03:34;;;;;;;;;;;;;;;8.93;70.29;102702.41;5140957;27;56113;-81
2022/01/17 01:05:59;;;;;;;;;;;;;;;8.92;68.92;102711.00;5141950;27;26849;-80
2022/01/17 01:08:24;;;;;;;;;;;;;;;8.91;69.21;102715.28;5141193;27;26779;-81
2022/01/17 01:10:49;;;;;;;;;;;;;;;8.92;69.69;102711.00;5141062;27;26851;-82
2022/01/17 01:13:21;;;;;;;;;;;;;;;8.92;69.46;102695.56;5140325;27;39862;-82
2022/01/17 01:15:58;;;;;;;;;;;;;;;8.92;69.67;102680.09;5145254;27;26887;-80
2022/01/17 01:18:49;;;;;;;;;;;;;;;;;;;;;
2022/01/17 01:29:15;;;;;;;;;;;;;;;8.83;69.52;102690.28;5146418;27;27018;-81
2022/01/17 01:31:46;;;;;;;;;;;;;;;8.83;69.30;102700.56;5143174;27;35116;-81
2022/01/17 01:34:12;;;;;;;;;;;;;;;8.83;69.02;102716.03;5143938;27;26838;-81
2022/01/17 01:36:38;;;;;;;;;;;;;;;8.82;69.37;102693.69;5144132;27;26897;-81
2022/01/17 01:39:05;;;;;;;;;;;;;;;8.84;69.50;102694.59;5143558;27;27104;-82
2022/01/17 01:41:34;;;;;;;;;;;;;;;8.79;68.06;102689.38;5145503;27;26869;-83
2022/01/17 01:44:00;;;;;;;;;;;;;;;8.79;68.93;102688.50;5146888;27;27520;-81
2022/01/17 01:46:25;;;;;;;;;;;;;;;8.77;68.98;102691.06;5144390;27;26778;-81
2022/01/17 01:48:50;;;;;;;;;;;;;;;8.78;69.38;102707.38;5143956;27;27274;-81
2022/01/17 01:51:16;;;;;;;;;;;;;;;8.76;69.07;102699.66;5144012;27;26901;-81
2022/01/17 01:53:41;;;;;;;;;;;;;;;8.78;69.28;102707.38;5144545;27;26980;-81
2022/01/17 01:56:06;;;;;;;;;;;;;;;8.76;68.81;102719.38;5143737;27;54911;-81
2022/01/17 01:58:31;;;;;;;;;;;;;;;8.78;68.55;102707.38;5144225;27;26748;-81
2022/01/17 02:00:59;;;;;;;;;;;;;;;8.77;68.21;102718.53;5146088;27;26905;-82
2022/01/17 02:03:24;;;;;;;;;;;;;;;8.81;68.70;102720.31;5126702;27;28963;-83
2022/01/17 02:05:49;;;;;;;;;;;;;;;8.81;69.01;102721.16;5143175;27;46812;-81
2022/01/17 02:08:15;;;;;;;;;;;;;;;8.81;68.30;102717.75;5142592;27;27626;-81
2022/01/17 02:10:40;;;;;;;;;;;;;;;8.80;68.95;102716.00;5144661;27;26841;-82
2022/01/17 02:13:05;;;;;;;;;;;;;;;8.77;66.95;102715.97;5145086;27;27521;-81
2022/01/17 02:15:31;;;;;;;;;;;;;;;8.77;68.12;102700.50;5145078;27;27077;-82
2022/01/17 02:17:57;;;;;;;;;;;;;;;8.76;67.78;102691.03;5143682;27;26943;-82
2022/01/17 02:20:27;;;;;;;;;;;;;;;8.73;67.63;102687.56;5144413;27;26873;-83
2022/01/17 02:22:52;;;;;;;;;;;;;;;8.75;67.72;102687.59;5144325;27;26918;-82
2022/01/17 02:25:18;;;;;;;;;;;;;;;8.73;67.74;102685.00;5143574;27;27004;-81
2022/01/17 02:27:43;;;;;;;;;;;;;;;8.71;67.59;102697.00;5141719;27;26901;-81
2022/01/17 02:30:09;;;;;;;;;;;;;;;8.68;68.36;102712.41;5145155;27;27004;-82
2022/01/17 02:32:34;;;;;;;;;;;;;;;8.66;67.62;102708.94;5145337;27;27640;-82
2022/01/17 02:35:16;;;;;;;;;;;;;;;8.64;67.91;102715.78;5146174;27;26814;-82
2022/01/17 02:37:42;;;;;;;;;;;;;;;8.63;68.09;102708.91;5145087;27;27032;-82
2022/01/17 02:40:07;;;;;;;;;;;;;;;8.60;67.92;102697.69;5144433;27;26465;-82
2022/01/17 02:42:34;;;;;;;;;;;;;;;8.57;68.05;102690.81;5143666;27;27292;-83
2022/01/17 02:45:08;;;;;;;;;;;;;;;8.55;67.62;102694.19;5145397;27;26877;-83
2022/01/17 02:47:34;;;;;;;;;;;;;;;8.53;68.08;102690.75;5126290;27;28672;-83
2022/01/17 02:49:59;;;;;;;;;;;;;;;8.50;67.26;102695.84;5143239;27;26869;-82
2022/01/17 02:52:24;;;;;;;;;;;;;;;8.48;67.23;102698.38;5144167;27;56176;-81
2022/01/17 02:54:49;;;;;;;;;;;;;;;8.48;67.73;102698.38;5141639;27;54453;-81
2022/01/17 02:57:14;;;;;;;;;;;;;;;8.45;67.15;102697.50;5141253;27;42231;-81
2022/01/17 02:59:39;;;;;;;;;;;;;;;8.42;67.12;102682.00;5140753;27;50625;-81
2022/01/17 03:02:05;;;;;;;;;;;;;;;8.39;67.60;102695.69;5142416;27;56508;-81
2022/01/17 03:04:31;;;;;;;;;;;;;;;8.37;67.60;102704.22;5143514;27;26947;-82
2022/01/17 03:06:56;;;;;;;;;;;;;;;8.35;67.48;102714.53;5141999;27;27057;-83
2022/01/17 03:09:23;;;;;;;;;;;;;;;8.35;67.25;102716.22;5123387;27;27211;-82
2022/01/17 03:11:48;;;;;;;;;;;;;;;8.33;67.30;102718.75;5138794;27;27425;-82
2022/01/17 03:14:13;;;;;;;;;;;;;;;8.35;67.66;102717.09;5141375;27;54232;-81
2022/01/17 03:16:45;;;;;;;;;;;;;;;8.34;67.31;102717.06;5144590;27;57187;-81
2022/01/17 03:19:11;;;;;;;;;;;;;;;8.36;67.78;102728.25;5142752;27;27079;-81
2022/01/17 03:21:36;;;;;;;;;;;;;;;8.36;67.35;102744.56;5139867;27;44407;-80
2022/01/17 03:24:01;;;;;;;;;;;;;;;8.36;66.96;102733.41;5139654;27;47671;-80
2022/01/17 03:26:29;;;;;;;;;;;;;;;8.36;67.36;102723.94;5140636;27;53022;-81
2022/01/17 03:28:55;;;;;;;;;;;;;;;8.35;67.66;102723.94;5141113;27;26793;-81
2022/01/17 03:31:20;;;;;;;;;;;;;;;8.35;67.45;102719.66;5139902;27;26796;-82
2022/01/17 03:33:45;;;;;;;;;;;;;;;8.34;67.45;102729.94;5138829;27;53435;-82
2022/01/17 03:36:10;;;;;;;;;;;;;;;8.33;67.27;102729.06;5141797;27;41705;-83
2022/01/17 03:38:36;;;;;;;;;;;;;;;8.32;67.26;102732.50;5140255;27;27092;-83
2022/01/17 03:41:02;;;;;;;;;;;;;;;8.28;67.13;102712.66;5140193;27;31201;-82
2022/01/17 03:43:28;;;;;;;;;;;;;;;8.24;67.06;102704.03;5140884;27;26701;-82
2022/01/17 03:45:53;;;;;;;;;;;;;;;8.23;67.38;102706.56;5141420;27;26745;-82
2022/01/17 03:48:19;;;;;;;;;;;;;;;8.22;67.16;102705.72;5140292;27;26923;-82
2022/01/17 03:50:45;;;;;;;;;;;;;;;8.20;67.26;102711.69;5121920;27;27811;-82
2022/01/17 03:53:10;;;;;;;;;;;;;;;8.12;66.54;102702.97;5123539;27;26829;-81
2022/01/17 03:55:36;;;;;;;;;;;;;;;8.07;67.30;102704.59;5141296;27;27976;-82
2022/01/17 03:58:02;;;;;;;;;;;;;;;7.97;66.28;102702.72;5146962;27;27077;-82
2022/01/17 04:00:29;;;;;;;;;;;;;;;7.92;67.03;102724.94;5144365;27;27270;-82
2022/01/17 04:02:54;;;;;;;;;;;;;;;7.88;67.06;102724.00;5121941;27;26954;-82
2022/01/17 04:05:20;;;;;;;;;;;;;;;7.83;67.05;102719.66;5140988;27;27434;-83
2022/01/17 04:07:45;;;;;;;;;;;;;;;7.77;66.74;102715.25;5139851;27;26812;-83
2022/01/17 04:10:11;;;;;;;;;;;;;;;7.71;67.03;102710.88;5144178;27;28106;-81
2022/01/17 04:12:36;;;;;;;;;;;;;;;7.66;67.25;102712.50;5141314;27;27031;-82
2022/01/17 04:15:01;;;;;;;;;;;;;;;7.60;66.89;102709.84;5140605;27;55733;-83
2022/01/17 04:17:29;;;;;;;;;;;;;;;7.56;66.99;102715.75;5141204;27;26893;-83
2022/01/17 04:20:03;;;;;;;;;;;;;;;7.53;66.85;102719.97;5141787;27;27209;-83
2022/01/17 04:22:28;;;;;;;;;;;;;;;7.50;67.18;102725.91;5141073;27;26881;-83
2022/01/17 04:24:53;;;;;;;;;;;;;;;7.47;67.03;102725.84;5140076;27;26916;-83
2022/01/17 04:27:18;;;;;;;;;;;;;;;7.45;67.12;102721.53;5139844;27;55137;-83
2022/01/17 04:29:43;;;;;;;;;;;;;;;7.42;67.47;102729.19;5122600;27;56725;-81
2022/01/17 04:32:10;;;;;;;;;;;;;;;7.36;67.53;102732.50;5139544;27;54069;-81
2022/01/17 04:34:35;;;;;;;;;;;;;;;7.34;67.50;102735.88;5141362;27;27831;-81
2022/01/17 04:37:02;;;;;;;;;;;;;;;7.30;67.27;102732.41;5140807;27;53356;-81
2022/01/17 04:39:27;;;;;;;;;;;;;;;7.32;67.36;102725.56;5140820;27;26904;-83
2022/01/17 04:41:53;;;;;;;;;;;;;;;7.35;67.50;102735.06;5142490;27;26869;-83
2022/01/17 04:47:02;;;;;;;;;;;;;;;7.42;67.17;102736.91;5143387;27;26937;-83
2022/01/17 04:49:27;;;;;;;;;;;;;;;7.46;67.87;102744.69;5145968;27;27516;-83
2022/01/17 04:51:54;;;;;;;;;;;;;;;7.52;67.72;102744.81;5144496;27;26978;-83
2022/01/17 04:54:40;;;;;;;;;;;;;;;7.55;68.06;102738.84;5145795;27;27037;-83
2022/01/17 04:57:06;;;;;;;;;;;;;;;7.57;67.12;102732.88;5145070;27;26931;-82
2022/01/17 04:59:31;;;;;;;;;;;;;;;7.62;68.13;102735.56;5145570;27;26798;-81
2022/01/17 05:01:56;;;;;;;;;;;;;;;7.62;67.62;102731.28;5144730;27;42874;-81
2022/01/17 05:04:21;;;;;;;;;;;;;;;7.63;67.00;102738.16;5147108;27;26759;-82
2022/01/17 05:06:47;;;;;;;;;;;;;;;7.65;67.90;102741.63;5150076;27;30029;-82
2022/01/17 05:09:12;;;;;;;;;;;;;;;7.68;67.28;102745.97;5145819;27;56479;-81
2022/01/17 05:11:37;;;;;;;;;;;;;;;7.69;67.30;102738.25;5143375;27;53964;-81
2022/01/17 05:14:02;;;;;;;;;;;;;;;7.69;66.87;102738.25;5143907;27;26971;-81
2022/01/17 05:16:35;;;;;;;;;;;;;;;7.70;66.75;102734.00;5153117;27;26786;-81
2022/01/17 05:21:43;;;;;;;;;;;;;;;7.71;67.69;102740.88;5147910;27;26771;-82
2022/01/17 05:24:09;;;;;;;;;;;;;;;7.71;67.30;102748.59;5146369;27;27302;-81
2022/01/17 05:26:34;;;;;;;;;;;;;;;7.73;67.52;102765.78;5144147;27;26859;-81
2022/01/17 05:28:59;;;;;;;;;;;;;;;7.74;67.61;102767.50;5143789;27;28384;-81
2022/01/17 05:31:25;;;;;;;;;;;;;;;7.76;67.37;102765.81;5142763;27;54199;-81
2022/01/17 05:33:50;;;;;;;;;;;;;;;7.80;67.30;102760.75;5143935;27;42034;-83
2022/01/17 05:36:15;;;;;;;;;;;;;;;7.80;67.28;102753.03;5126683;27;26845;-83
2022/01/17 05:38:40;;;;;;;;;;;;;;;7.78;67.00;102759.03;5143690;27;28832;-83
2022/01/17 05:41:05;;;;;;;;;;;;;;;7.76;67.16;102770.97;5144545;27;32211;-83
2022/01/17 05:43:31;;;;;;;;;;;;;;;7.77;67.26;102774.41;5143396;27;56651;-83
2022/01/17 05:45:56;;;;;;;;;;;;;;;7.77;67.25;102777.84;5143174;27;26914;-83
2022/01/17 05:48:21;;;;;;;;;;;;;;;7.80;67.35;102776.19;5143917;27;42679;-83
2022/01/17 05:50:46;;;;;;;;;;;;;;;7.78;67.27;102774.44;5126255;27;26914;-82
2022/01/17 05:53:12;;;;;;;;;;;;;;;7.80;67.19;102760.75;5144160;27;27680;-81
2022/01/17 05:55:37;;;;;;;;;;;;;;;7.80;66.79;102755.63;5142888;27;26860;-80
2022/01/17 05:58:03;;;;;;;;;;;;;;;7.78;67.12;102748.72;5142396;27;27852;-81
2022/01/17 06:00:28;;;;;;;;;;;;;;;7.77;67.22;102746.13;5148783;27;26686;-80
2022/01/17 06:02:53;;;;;;;;;;;;;;;7.76;67.45;102739.25;5150035;27;47038;-81
2022/01/17 06:05:18;;;;;;;;;;;;;;;7.70;67.42;102727.16;5146853;27;26725;-81
2022/01/17 06:07:44;;;;;;;;;;;;;;;7.66;67.33;102725.34;5143975;27;38188;-81
2022/01/17 06:10:09;;;;;;;;;;;;;;;7.66;67.20;102729.63;5143275;27;26816;-83
2022/01/17 06:12:34;;;;;;;;;;;;;;;7.64;67.71;102728.75;5141737;27;53241;-81
2022/01/17 06:14:59;;;;;;;;;;;;;;;7.60;67.38;102732.97;5143063;27;26782;-82
2022/01/17 06:17:25;;;;;;;;;;;;;;;7.56;67.58;102733.75;5142869;27;55923;-82
2022/01/17 06:19:50;;;;;;;;;;;;;;;7.52;67.31;102729.38;5147271;27;26883;-82
2022/01/17 06:22:15;;;;;;;;;;;;;;;7.50;67.34;102733.63;5143930;27;57602;-83
2022/01/17 06:24:40;;;;;;;;;;;;;;;7.48;67.96;102727.59;5143702;27;33423;-81
2022/01/17 06:27:05;;;;;;;;;;;;;;;7.46;68.02;102729.25;5143738;27;27140;-81
2022/01/17 06:29:31;;;;;;;;;;;;;;;7.46;68.52;102721.53;5142409;27;26708;-80
2022/01/17 06:31:56;;;;;;;;;;;;;;;7.46;68.53;102713.84;5152900;27;28335;-80
2022/01/17 06:34:24;;;;;;;;;;;;;;;7.50;68.05;102707.91;5154346;27;27013;-83
2022/01/17 06:36:49;;;;;;;;;;;;;;;7.55;68.31;102702.84;5151382;27;27642;-81
2022/01/17 06:39:15;;;;;;;;;;;;;;;7.57;68.22;102696.88;5144235;27;26839;-82
2022/01/17 06:41:40;;;;;;;;;;;;;;;7.58;68.66;102708.06;5141767;27;27165;-82
2022/01/17 06:44:05;;;;;;;;;;;;;;;7.60;68.33;102696.97;5143757;27;27027;-82
2022/01/17 06:46:32;;;;;;;;;;;;;;;7.63;68.52;102712.44;5140189;27;27117;-82
2022/01/17 06:48:57;;;;;;;;;;;;;;;7.63;68.75;102709.88;5141044;27;26882;-82
2022/01/17 06:51:22;;;;;;;;;;;;;;;7.66;68.81;102717.63;5142921;27;26946;-82
2022/01/17 06:53:48;;;;;;;;;;;;;;;7.69;68.67;102733.13;5139704;27;26935;-82
2022/01/17 06:56:15;;;;;;;;;;;;;;;7.68;69.57;102736.56;5135332;27;27118;-82
2022/01/17 06:58:42;;;;;;;;;;;;;;;7.73;68.85;102745.19;5140584;27;27153;-82
2022/01/17 07:01:08;;;;;;;;;;;;;;;7.73;69.25;102760.63;5142521;27;27401;-83
2022/01/17 07:03:33;;;;;;;;;;;;;;;7.75;69.15;102769.25;5113693;27;27481;-83
2022/01/17 07:05:58;;;;;;;;;;;;;;;7.77;69.89;102780.44;5129342;27;56773;-82
2022/01/17 07:08:23;;;;;;;;;;;;;;;7.85;69.36;102806.28;5126740;27;27362;-82
2022/01/17 07:10:49;;;;;;;;;;;;;;;7.89;69.41;102802.06;5122523;27;54858;-82
2022/01/17 07:13:14;;;;;;;;;;;;;;;7.91;69.26;102788.38;5119661;27;27151;-82
2022/01/17 07:15:39;;;;;;;;;;;;;;;7.94;69.43;102769.56;5114519;27;27426;-80
2022/01/17 07:18:06;;;;;;;;;;;;;;;7.97;69.64;102769.63;5106251;27;26963;-82
2022/01/17 07:20:33;;;;;;;;;;;;;;;8.01;69.56;102777.44;5102192;27;27460;-81
2022/01/17 07:23:00;;;;;;;;;;;;;;;8.03;69.73;102765.44;5085639;27;27197;-81
2022/01/17 07:25:25;;;;;;;;;;;;;;;8.07;69.75;102766.34;5096309;27;27383;-81
2022/01/17 07:27:51;;;;;;;;;;;;;;;8.10;69.26;102756.09;5092802;27;27530;-81
2022/01/17 07:30:16;;;;;;;;;;;;;;;8.10;68.98;102766.41;5078064;27;28770;-81
2022/01/17 07:32:41;;;;;;;;;;;;;;;8.15;69.54;102777.66;5104311;27;27068;-81
2022/01/17 07:35:07;;;;;;;;;;;;;;;8.14;69.83;102778.47;5104948;27;28761;-81
2022/01/17 07:37:32;;;;;;;;;;;;;;;8.11;69.62;102773.28;5108536;27;27216;-81
2022/01/17 07:39:58;;;;;;;;;;;;;;;8.12;69.40;102775.03;5107719;27;27472;-81
2022/01/17 07:42:23;;;;;;;;;;;;;;;8.11;69.85;102775.88;5108733;27;27288;-81
2022/01/17 07:44:54;;;;;;;;;;;;;;;8.12;69.84;102781.06;5115120;27;27145;-80
2022/01/17 07:47:25;;;;;;;;;;;;;;;8.14;70.03;102786.22;5119120;27;26898;-81
2022/01/17 07:49:50;;;;;;;;;;;;;;;8.17;70.08;102788.84;5115933;27;27293;-81
2022/01/17 07:52:16;;;;;;;;;;;;;;;8.20;70.15;102797.50;5109909;27;27208;-81
2022/01/17 07:54:43;;;;;;;;;;;;;;;8.23;69.59;102799.25;5115308;27;27234;-81
2022/01/17 08:00:20;;;;;;;;;;;;;;;8.33;70.34;102806.31;5150010;27;26667;-81
2022/01/17 08:02:46;;;;;;;;;;;;;;;8.34;70.19;102802.91;5111814;27;27212;-81
2022/01/17 08:05:14;;;;;;;;;;;;;;;8.39;70.46;102806.41;5118441;27;27517;-81
2022/01/17 08:07:39;;;;;;;;;;;;;;;8.47;70.24;102814.28;5118710;27;27154;-81
2022/01/17 08:10:07;;;;;;;;;;;;;;;8.50;70.21;102815.19;5116454;27;27394;-81
2022/01/17 08:12:33;;;;;;;;;;;;;;;8.52;70.07;102818.63;5094732;27;27131;-81
2022/01/17 08:15:01;;;;;;;;;;;;;;;8.53;70.61;102810.06;5107088;27;27632;-83
2022/01/17 08:17:29;;;;;;;;;;;;;;;8.51;71.04;102822.03;5105014;27;27053;-82
2022/01/17 08:19:55;;;;;;;;;;;;;;;8.53;70.82;102810.06;5101301;27;27303;-82
2022/01/17 08:22:20;;;;;;;;;;;;;;;8.48;70.90;102811.69;5075820;27;27030;-81
2022/01/17 08:24:45;;;;;;;;;;;;;;;8.48;71.18;102811.69;5082292;27;57096;-81
2022/01/17 08:27:10;;;;;;;;;;;;;;;8.44;71.78;102825.38;5050649;27;27328;-79
2022/01/17 08:29:35;;;;;;;;;;;;;;;8.43;71.50;102826.22;5059852;27;45186;-81
2022/01/17 08:32:04;;;;;;;;;;;;;;;8.44;71.27;102822.78;5082122;27;27158;-81
2022/01/17 08:34:30;;;;;;;;;;;;;;;8.43;72.36;102821.06;5076681;27;27037;-80
2022/01/17 08:37:21;;;;;;;;;;;;;;;8.45;71.95;102821.09;5102848;27;27148;-80
2022/01/17 08:39:46;;;;;;;;;;;;;;;8.44;71.92;102820.22;5014783;28;27406;-79
2022/01/17 08:42:12;;;;;;;;;;;;;;;8.44;72.09;102819.34;4997418;28;41257;-81
2022/01/17 08:44:37;;;;;;;;;;;;;;;8.47;72.26;102819.41;5013721;28;27702;-81
2022/01/17 08:47:03;;;;;;;;;;;;;;;8.48;72.40;102816.84;5000542;28;27427;-81
2022/01/17 08:49:28;;;;;;;;;;;;;;;8.49;72.04;102818.59;5014982;28;27954;-81
2022/01/17 08:51:53;;;;;;;;;;;;;;;8.54;72.51;102822.13;5008854;28;55463;-81
2022/01/17 08:54:18;;;;;;;;;;;;;;;8.57;72.26;102827.31;5019510;28;35452;-81
2022/01/17 08:56:45;;;;;;;;;;;;;;;8.56;72.39;102830.72;5017130;28;27570;-81
2022/01/17 08:59:10;;;;;;;;;;;;;;;8.60;72.38;102832.50;5009851;28;27365;-80
2022/01/17 09:01:35;;;;;;;;;;;;;;;8.62;72.48;102828.22;4998839;28;41914;-82
2022/01/17 09:04:00;;;;;;;;;;;;;;;8.66;72.19;102824.84;5014058;28;53603;-81
2022/01/17 09:06:26;;;;;;;;;;;;;;;8.70;72.16;102829.22;5011580;28;52930;-81
2022/01/17 09:08:51;;;;;;;;;;;;;;;8.76;72.51;102812.13;5014037;28;27632;-83
2022/01/17 09:14:44;;;;;;;;;;;;;;;8.77;72.25;102842.22;5044249;28;26990;-81
2022/01/17 09:17:10;;;;;;;;;;;;;;;8.80;72.25;102844.81;5043380;28;26870;-82
2022/01/17 09:19:37;;;;;;;;;;;;;;;8.82;72.34;102848.28;5067924;28;27991;-80
2022/01/17 09:22:03;;;;;;;;;;;;;;;8.85;72.28;102848.34;5056620;28;26926;-81
2022/01/17 09:24:28;;;;;;;;;;;;;;;8.85;72.75;102848.34;5055743;28;28278;-80
2022/01/17 09:26:53;;;;;;;;;;;;;;;8.87;72.68;102846.66;5008855;28;27264;-80
2022/01/17 09:29:18;;;;;;;;;;;;;;;8.90;73.08;102860.44;4964087;28;28829;-80
2022/01/17 09:31:44;;;;;;;;;;;;;;;8.94;72.98;102848.47;4989417;28;27472;-80
2022/01/17 09:34:09;;;;;;;;;;;;;;;8.97;73.04;102869.13;5006329;28;27354;-81
2022/01/17 09:36:35;;;;;;;;;;;;;;;9.01;73.14;102870.91;5016902;28;27661;-81
2022/01/17 09:39:01;;;;;;;;;;;;;;;9.07;72.47;102871.00;4996367;28;27543;-81
2022/01/17 09:41:26;;;;;;;;;;;;;;;9.14;73.31;102883.13;5009648;28;27590;-81
2022/01/17 09:43:52;;;;;;;;;;;;;;;9.21;72.97;102874.66;5010153;28;27483;-80
2022/01/17 09:46:20;;;;;;;;;;;;;;;9.25;72.85;102870.41;5003622;28;27026;-79
2022/01/17 09:48:48;;;;;;;;;;;;;;;9.35;72.77;102886.00;5012059;28;27283;-81
2022/01/17 09:51:31;;;;;;;;;;;;;;;9.41;72.83;102892.97;5021818;28;27423;-80
2022/01/17 09:53:58;;;;;;;;;;;;;;;9.44;72.29;102891.31;5032880;28;27200;-82
2022/01/17 09:56:26;;;;;;;;;;;;;;;9.45;72.59;102905.91;5019463;28;27007;-82
2022/01/17 09:58:56;;;;;;;;;;;;;;;9.50;72.27;102893.94;5021783;28;28631;-81
2022/01/17 10:01:24;;;;;;;;;;;;;;;9.52;72.59;102887.06;5025846;27;27252;-83
2022/01/17 10:03:51;;;;;;;;;;;;;;;9.60;71.90;102893.22;5007080;27;27616;-81
2022/01/17 10:06:16;;;;;;;;;;;;;;;9.66;72.06;102885.56;5024009;27;27486;-82
2022/01/17 10:08:47;;;;;;;;;;;;;;;9.71;72.45;102894.22;5023803;27;27319;-82
2022/01/17 10:11:15;;;;;;;;;;;;;;;9.77;71.89;102897.72;5019746;28;27643;-81
2022/01/17 10:13:45;;;;;;;;;;;;;;;9.80;71.97;102895.16;5028001;28;27607;-82
2022/01/17 10:16:14;;;;;;;;;;;;;;;9.87;72.35;102894.38;5019511;27;27436;-82
2022/01/17 10:18:48;;;;;;;;;;;;;;;9.88;71.75;102911.63;5031879;27;27298;-84
2022/01/17 10:21:34;;;;;;;;;;;;;;;9.92;71.41;102918.53;5041363;27;27408;-84
2022/01/17 10:26:54;;;;;;;;;;;;;;;9.97;72.29;102917.72;5039450;27;27405;-82
2022/01/17 10:35:12;;;;;;;;;;;;;;;10.23;71.67;102910.34;5097216;27;27299;-79
2022/01/17 10:37:37;;;;;;;;;;;;;;;10.29;71.80;102912.09;5102730;27;27284;-78
2022/01/17 10:40:07;;;;;;;;;;;;;;;10.36;72.01;102901.84;5085435;27;28751;-79
2022/01/17 10:42:46;;;;;;;;;;;;;;;10.43;70.88;102913.97;5107462;27;27124;-84
2022/01/17 10:45:15;;;;;;;;;;;;;;;10.49;71.44;102919.22;5088414;27;27039;-82
2022/01/17 10:47:43;;;;;;;;;;;;;;;10.53;70.59;102905.47;5038609;27;27538;-81
2022/01/17 10:50:20;;;;;;;;;;;;;;;10.57;71.25;102898.59;5076248;27;28411;-80
2022/01/17 10:52:47;;;;;;;;;;;;;;;10.63;71.20;102901.22;5083333;27;27778;-80
2022/01/17 10:55:24;;;;;;;;;;;;;;;10.71;70.86;102909.03;5070655;27;28474;-80
2022/01/17 10:57:51;;;;;;;;;;;;;;;10.85;70.30;102917.78;5093612;27;27246;-81
2022/01/17 11:00:18;;;;;;;;;;;;;;;10.82;70.27;102912.59;5074643;27;27695;-79
2022/01/17 11:02:47;;;;;;;;;;;;;;;10.85;69.65;102928.09;5093646;27;27480;-81
2022/01/17 11:05:14;;;;;;;;;;;;;;;10.88;69.65;102933.31;5051783;27;29014;-81
2022/01/17 11:07:40;;;;;;;;;;;;;;;10.86;69.82;102945.38;5035800;27;27501;-80
2022/01/17 11:10:12;;;;;;;;;;;;;;;10.88;68.99;102935.88;5052084;27;28663;-80
2022/01/17 11:12:38;;;;;;;;;;;;;;;10.88;68.98;102928.13;5067125;27;27213;-83
2022/01/17 11:15:03;;;;;;;;;;;;;;;10.92;69.53;102935.06;5072248;27;27736;-80
2022/01/17 11:17:38;;;;;;;;;;;;;;;10.94;69.30;102934.25;5063849;27;27050;-81
2022/01/17 11:20:08;;;;;;;;;;;;;;;10.99;69.28;102926.50;5067827;27;29592;-81
2022/01/17 11:22:34;;;;;;;;;;;;;;;11.01;69.18;102919.63;5063797;27;27277;-82
2022/01/17 11:25:00;;;;;;;;;;;;;;;10.99;68.54;102916.16;5082029;27;27332;-78
2022/01/17 11:27:26;;;;;;;;;;;;;;;11.05;69.24;102916.22;5085324;27;27098;-84
2022/01/17 11:29:52;;;;;;;;;;;;;;;11.07;68.38;102914.47;5071275;27;28629;-83
2022/01/17 11:32:18;;;;;;;;;;;;;;;11.06;68.56;102907.56;5093467;27;27139;-83
2022/01/17 11:34:43;;;;;;;;;;;;;;;11.10;68.62;102917.09;5094604;27;27276;-82
2022/01/17 11:37:09;;;;;;;;;;;;;;;11.07;68.26;102909.31;5096327;27;27004;-80
2022/01/17 11:39:43;;;;;;;;;;;;;;;11.02;68.26;102905.84;5094417;27;27368;-84
2022/01/17 11:42:27;;;;;;;;;;;;;;;11.23;68.67;102926.66;5108234;27;27276;-84
2022/01/17 11:44:52;;;;;;;;;;;;;;;11.24;68.56;102941.34;5138091;27;27586;-84
2022/01/17 11:47:17;;;;;;;;;;;;;;;11.34;68.50;102961.25;5107558;27;43979;-84
2022/01/17 11:49:45;;;;;;;;;;;;;;;11.36;68.13;102975.03;5086825;27;42044;-86
2022/01/17 11:52:27;;;;;;;;;;;;;;;11.32;68.38;102962.94;5097731;27;27388;-85
2022/01/17 11:54:54;;;;;;;;;;;;;;;11.39;68.19;102969.03;5107207;27;26968;-86
2022/01/17 11:57:21;;;;;;;;;;;;;;;11.49;68.38;102969.09;5107337;27;27274;-87
2022/01/17 11:59:48;;;;;;;;;;;;;;;11.50;67.63;102959.63;5113564;27;27593;-87
2022/01/17 12:02:20;;;;;;;;;;;;;;;11.53;67.78;102957.91;5101075;27;27313;-85
2022/01/17 12:05:03;;;;;;;;;;;;;;;11.54;67.51;102959.66;5126105;27;27453;-84
2022/01/17 12:08:03;;;;;;;;;;;;;;;11.57;67.25;102951.03;5102417;27;27385;-88
2022/01/17 12:10:38;;;;;;;;;;;;;;;11.57;67.94;102944.13;4997560;28;27300;-83
2022/01/17 12:13:13;;;;;;;;;;;;;;;11.63;67.91;102938.97;4989892;28;27454;-84
2022/01/17 12:16:06;;;;;;;;;;;;;;;11.63;68.18;102936.38;5012540;28;27835;-84
2022/01/17 12:19:04;;;;;;;;;;;;;;;11.66;67.16;102926.91;5074029;28;26722;-87
2022/01/17 12:24:41;;;;;;;;;;;;;;;11.61;66.85;102903.59;4927353;28;27555;-85
2022/01/17 12:27:08;;;;;;;;;;;;;;;11.59;67.01;102911.34;4928955;28;27832;-85
2022/01/17 12:30:06;;;;;;;;;;;;;;;11.61;67.99;102929.47;4928431;28;27346;-82
2022/01/17 12:32:36;;;;;;;;;;;;;;;11.63;67.84;102936.38;4820265;29;27546;-84
2022/01/17 12:35:03;;;;;;;;;;;;;;;11.74;68.05;102945.94;4820426;29;27344;-84
2022/01/17 12:37:35;;;;;;;;;;;;;;;11.79;67.24;102944.25;4825918;29;27323;-84
2022/01/17 12:40:08;;;;;;;;;;;;;;;11.83;67.21;102946.00;4828659;29;27016;-85
2022/01/17 12:42:53;;;;;;;;;;;;;;;11.81;66.83;102945.16;4826240;29;27857;-84
2022/01/17 12:45:26;;;;;;;;;;;;;;;11.82;67.09;102949.44;4831089;29;26964;-84
2022/01/17 12:47:52;;;;;;;;;;;;;;;11.87;66.72;102968.47;4897731;29;27005;-83
2022/01/17 12:50:17;;;;;;;;;;;;;;;11.89;66.25;102957.25;4901378;29;26967;-83
2022/01/17 12:52:44;;;;;;;;;;;;;;;11.93;65.75;102932.22;4904794;29;27257;-85
2022/01/17 12:55:10;;;;;;;;;;;;;;;11.93;66.37;102927.03;4901501;29;27300;-84
2022/01/17 12:57:39;;;;;;;;;;;;;;;11.92;66.04;102935.69;4909599;28;27253;-84
2022/01/17 13:00:05;;;;;;;;;;;;;;;11.93;66.68;102942.56;4912891;28;27239;-85
2022/01/17 13:02:30;;;;;;;;;;;;;;;11.97;66.31;102923.59;5004038;28;27343;-83
2022/01/17 13:04:55;;;;;;;;;;;;;;;11.97;66.31;102923.59;5016504;28;27333;-83
2022/01/17 13:07:21;;;;;;;;;;;;;;;11.98;66.58;102940.88;5026280;27;27250;-83
2022/01/17 13:09:46;;;;;;;;;;;;;;;11.97;66.25;102927.06;5127923;27;27044;-84
2022/01/17 13:12:11;;;;;;;;;;;;;;;11.93;66.78;102948.63;5113519;27;27334;-85
2022/01/17 13:14:37;;;;;;;;;;;;;;;11.94;66.14;102952.09;5103056;27;27097;-84
2022/01/17 13:17:06;;;;;;;;;;;;;;;11.87;66.48;102947.75;5099394;27;27409;-84
2022/01/17 13:19:31;;;;;;;;;;;;;;;11.84;66.38;102952.91;5106620;27;27300;-84